sensor_id;sensor_type;location;lat;lon;timestamp;P1;durP1;ratioP1;P2;durP2;ratioP2
15104;SDS011;7653;48.994;9.212;2022-12-18T00:01:45;41.77;;;17.80;;
15104;SDS011;7653;48.994;9.212;2022-12-18T00:04:21;40.20;;;18.20;;
15104;SDS011;7653;48.994;9.212;2022-12-18T00:06:49;36.83;;;19.40;;
15104;SDS011;7653;48.994;9.212;2022-12-18T00:09:15;38.17;;;18.60;;
15104;SDS011;7653;48.994;9.212;2022-12-18T00:11:41;35.83;;;18.07;;
15104;SDS011;7653;48.994;9.212;2022-12-18T00:14:09;40.23;;;18.23;;
15104;SDS011;7653;48.994;9.212;2022-12-18T00:16:37;39.40;;;18.73;;
15104;SDS011;7653;48.994;9.212;2022-12-18T00:19:03;46.33;;;19.97;;
15104;SDS011;7653;48.994;9.212;2022-12-18T00:21:30;43.10;;;18.80;;
15104;SDS011;7653;48.994;9.212;2022-12-18T00:23:56;41.60;;;19.43;;
15104;SDS011;7653;48.994;9.212;2022-12-18T00:26:30;38.00;;;18.30;;
15104;SDS011;7653;48.994;9.212;2022-12-18T00:29:01;39.77;;;18.57;;
15104;SDS011;7653;48.994;9.212;2022-12-18T00:31:36;39.00;;;19.40;;
15104;SDS011;7653;48.994;9.212;2022-12-18T00:34:03;37.37;;;19.93;;
15104;SDS011;7653;48.994;9.212;2022-12-18T00:36:31;39.63;;;19.87;;
15104;SDS011;7653;48.994;9.212;2022-12-18T00:38:59;40.47;;;18.73;;
15104;SDS011;7653;48.994;9.212;2022-12-18T00:41:27;42.50;;;19.23;;
15104;SDS011;7653;48.994;9.212;2022-12-18T00:44:13;42.33;;;18.67;;
15104;SDS011;7653;48.994;9.212;2022-12-18T00:46:40;41.63;;;18.00;;
15104;SDS011;7653;48.994;9.212;2022-12-18T00:49:06;37.37;;;18.20;;
15104;SDS011;7653;48.994;9.212;2022-12-18T00:51:33;40.03;;;18.10;;
15104;SDS011;7653;48.994;9.212;2022-12-18T00:53:58;42.57;;;18.23;;
15104;SDS011;7653;48.994;9.212;2022-12-18T00:56:24;40.73;;;19.00;;
15104;SDS011;7653;48.994;9.212;2022-12-18T00:58:50;36.17;;;18.47;;
15104;SDS011;7653;48.994;9.212;2022-12-18T01:01:15;39.90;;;18.70;;
15104;SDS011;7653;48.994;9.212;2022-12-18T01:03:41;38.83;;;18.53;;
15104;SDS011;7653;48.994;9.212;2022-12-18T01:06:08;40.87;;;18.70;;
15104;SDS011;7653;48.994;9.212;2022-12-18T01:08:36;38.70;;;18.23;;
15104;SDS011;7653;48.994;9.212;2022-12-18T01:11:09;35.93;;;18.30;;
15104;SDS011;7653;48.994;9.212;2022-12-18T01:13:37;38.77;;;17.10;;
15104;SDS011;7653;48.994;9.212;2022-12-18T01:16:03;35.13;;;17.57;;
15104;SDS011;7653;48.994;9.212;2022-12-18T01:18:29;37.40;;;18.80;;
15104;SDS011;7653;48.994;9.212;2022-12-18T01:20:54;38.40;;;17.47;;
15104;SDS011;7653;48.994;9.212;2022-12-18T01:23:20;40.03;;;18.17;;
15104;SDS011;7653;48.994;9.212;2022-12-18T01:25:45;38.93;;;17.07;;
15104;SDS011;7653;48.994;9.212;2022-12-18T01:28:11;36.80;;;17.77;;
15104;SDS011;7653;48.994;9.212;2022-12-18T01:30:37;31.80;;;17.43;;
15104;SDS011;7653;48.994;9.212;2022-12-18T01:33:04;35.07;;;17.17;;
15104;SDS011;7653;48.994;9.212;2022-12-18T01:35:30;38.77;;;17.60;;
15104;SDS011;7653;48.994;9.212;2022-12-18T01:37:56;34.90;;;17.80;;
15104;SDS011;7653;48.994;9.212;2022-12-18T01:40:22;36.93;;;17.67;;
15104;SDS011;7653;48.994;9.212;2022-12-18T01:42:51;35.03;;;17.73;;
15104;SDS011;7653;48.994;9.212;2022-12-18T01:50:39;38.10;;;17.30;;
15104;SDS011;7653;48.994;9.212;2022-12-18T01:55:43;36.20;;;17.47;;
15104;SDS011;7653;48.994;9.212;2022-12-18T01:58:18;37.20;;;17.93;;
15104;SDS011;7653;48.994;9.212;2022-12-18T02:00:46;34.27;;;17.83;;
15104;SDS011;7653;48.994;9.212;2022-12-18T02:03:12;36.93;;;18.20;;
15104;SDS011;7653;48.994;9.212;2022-12-18T02:05:44;31.17;;;16.87;;
15104;SDS011;7653;48.994;9.212;2022-12-18T02:08:28;38.63;;;18.43;;
15104;SDS011;7653;48.994;9.212;2022-12-18T02:16:39;41.37;;;18.10;;
15104;SDS011;7653;48.994;9.212;2022-12-18T02:19:27;36.70;;;16.10;;
15104;SDS011;7653;48.994;9.212;2022-12-18T02:25:04;35.57;;;17.17;;
15104;SDS011;7653;48.994;9.212;2022-12-18T02:27:34;34.20;;;17.03;;
15104;SDS011;7653;48.994;9.212;2022-12-18T02:30:02;32.80;;;17.33;;
15104;SDS011;7653;48.994;9.212;2022-12-18T02:32:31;34.43;;;16.17;;
15104;SDS011;7653;48.994;9.212;2022-12-18T02:35:01;35.57;;;17.67;;
15104;SDS011;7653;48.994;9.212;2022-12-18T02:37:29;37.60;;;17.13;;
15104;SDS011;7653;48.994;9.212;2022-12-18T02:39:56;38.13;;;17.13;;
15104;SDS011;7653;48.994;9.212;2022-12-18T02:42:24;38.50;;;17.80;;
15104;SDS011;7653;48.994;9.212;2022-12-18T02:44:51;38.83;;;18.70;;
15104;SDS011;7653;48.994;9.212;2022-12-18T02:47:21;37.57;;;17.90;;
15104;SDS011;7653;48.994;9.212;2022-12-18T02:49:58;34.07;;;16.00;;
15104;SDS011;7653;48.994;9.212;2022-12-18T02:58:10;35.87;;;17.13;;
15104;SDS011;7653;48.994;9.212;2022-12-18T03:00:53;39.53;;;17.40;;
15104;SDS011;7653;48.994;9.212;2022-12-18T03:03:43;36.67;;;16.47;;
15104;SDS011;7653;48.994;9.212;2022-12-18T03:08:46;40.27;;;19.47;;
15104;SDS011;7653;48.994;9.212;2022-12-18T03:11:14;40.53;;;18.63;;
15104;SDS011;7653;48.994;9.212;2022-12-18T03:13:48;39.57;;;17.23;;
15104;SDS011;7653;48.994;9.212;2022-12-18T03:16:17;36.90;;;17.33;;
15104;SDS011;7653;48.994;9.212;2022-12-18T03:21:49;40.27;;;18.70;;
15104;SDS011;7653;48.994;9.212;2022-12-18T03:24:21;39.63;;;16.93;;
15104;SDS011;7653;48.994;9.212;2022-12-18T03:26:50;39.50;;;17.77;;
15104;SDS011;7653;48.994;9.212;2022-12-18T03:29:24;46.27;;;19.10;;
15104;SDS011;7653;48.994;9.212;2022-12-18T03:31:54;39.23;;;17.13;;
15104;SDS011;7653;48.994;9.212;2022-12-18T03:34:26;40.27;;;19.60;;
15104;SDS011;7653;48.994;9.212;2022-12-18T03:36:59;44.03;;;20.00;;
15104;SDS011;7653;48.994;9.212;2022-12-18T03:39:26;43.00;;;19.00;;
15104;SDS011;7653;48.994;9.212;2022-12-18T03:47:28;40.00;;;19.47;;
15104;SDS011;7653;48.994;9.212;2022-12-18T03:52:38;42.93;;;19.00;;
15104;SDS011;7653;48.994;9.212;2022-12-18T03:55:08;43.27;;;20.27;;
15104;SDS011;7653;48.994;9.212;2022-12-18T03:57:34;48.37;;;20.47;;
15104;SDS011;7653;48.994;9.212;2022-12-18T04:00:06;41.37;;;19.40;;
15104;SDS011;7653;48.994;9.212;2022-12-18T04:02:37;40.93;;;19.40;;
15104;SDS011;7653;48.994;9.212;2022-12-18T04:05:08;44.37;;;19.47;;
15104;SDS011;7653;48.994;9.212;2022-12-18T04:07:35;45.13;;;22.17;;
15104;SDS011;7653;48.994;9.212;2022-12-18T04:10:02;52.40;;;22.73;;
15104;SDS011;7653;48.994;9.212;2022-12-18T04:12:30;45.63;;;20.33;;
15104;SDS011;7653;48.994;9.212;2022-12-18T04:14:55;47.43;;;21.17;;
15104;SDS011;7653;48.994;9.212;2022-12-18T04:17:21;45.17;;;20.33;;
15104;SDS011;7653;48.994;9.212;2022-12-18T04:19:47;48.50;;;20.77;;
15104;SDS011;7653;48.994;9.212;2022-12-18T04:22:13;44.27;;;18.43;;
15104;SDS011;7653;48.994;9.212;2022-12-18T04:24:38;44.20;;;19.13;;
15104;SDS011;7653;48.994;9.212;2022-12-18T04:27:04;39.93;;;19.27;;
15104;SDS011;7653;48.994;9.212;2022-12-18T04:29:30;44.63;;;20.13;;
15104;SDS011;7653;48.994;9.212;2022-12-18T04:31:58;46.80;;;19.47;;
15104;SDS011;7653;48.994;9.212;2022-12-18T04:34:23;42.90;;;19.47;;
15104;SDS011;7653;48.994;9.212;2022-12-18T04:36:49;45.10;;;19.20;;
15104;SDS011;7653;48.994;9.212;2022-12-18T04:39:14;48.33;;;19.00;;
15104;SDS011;7653;48.994;9.212;2022-12-18T04:41:40;39.03;;;19.77;;
15104;SDS011;7653;48.994;9.212;2022-12-18T04:44:06;43.47;;;18.53;;
15104;SDS011;7653;48.994;9.212;2022-12-18T04:46:33;36.90;;;19.27;;
15104;SDS011;7653;48.994;9.212;2022-12-18T04:48:58;39.07;;;19.47;;
15104;SDS011;7653;48.994;9.212;2022-12-18T04:51:24;35.57;;;17.40;;
15104;SDS011;7653;48.994;9.212;2022-12-18T04:53:49;38.50;;;18.90;;
15104;SDS011;7653;48.994;9.212;2022-12-18T04:56:15;42.97;;;19.03;;
15104;SDS011;7653;48.994;9.212;2022-12-18T04:58:42;38.20;;;16.87;;
15104;SDS011;7653;48.994;9.212;2022-12-18T05:01:09;43.00;;;18.43;;
15104;SDS011;7653;48.994;9.212;2022-12-18T05:03:35;40.63;;;18.63;;
15104;SDS011;7653;48.994;9.212;2022-12-18T05:06:02;35.80;;;15.87;;
15104;SDS011;7653;48.994;9.212;2022-12-18T05:08:28;40.00;;;18.57;;
15104;SDS011;7653;48.994;9.212;2022-12-18T05:11:07;36.17;;;17.03;;
15104;SDS011;7653;48.994;9.212;2022-12-18T05:13:35;37.50;;;16.97;;
15104;SDS011;7653;48.994;9.212;2022-12-18T05:16:01;39.77;;;16.70;;
15104;SDS011;7653;48.994;9.212;2022-12-18T05:18:27;35.63;;;17.50;;
15104;SDS011;7653;48.994;9.212;2022-12-18T05:20:54;42.23;;;17.20;;
15104;SDS011;7653;48.994;9.212;2022-12-18T05:23:20;34.90;;;17.80;;
15104;SDS011;7653;48.994;9.212;2022-12-18T05:25:50;35.27;;;16.80;;
15104;SDS011;7653;48.994;9.212;2022-12-18T05:28:16;30.47;;;14.77;;
15104;SDS011;7653;48.994;9.212;2022-12-18T05:30:41;32.83;;;15.83;;
15104;SDS011;7653;48.994;9.212;2022-12-18T05:33:07;30.37;;;15.90;;
15104;SDS011;7653;48.994;9.212;2022-12-18T05:35:33;37.97;;;16.77;;
15104;SDS011;7653;48.994;9.212;2022-12-18T05:37:58;29.30;;;15.00;;
15104;SDS011;7653;48.994;9.212;2022-12-18T05:40:24;35.63;;;15.23;;
15104;SDS011;7653;48.994;9.212;2022-12-18T05:42:49;33.47;;;15.83;;
15104;SDS011;7653;48.994;9.212;2022-12-18T05:45:15;34.57;;;15.53;;
15104;SDS011;7653;48.994;9.212;2022-12-18T05:47:41;32.37;;;15.73;;
15104;SDS011;7653;48.994;9.212;2022-12-18T05:50:06;32.17;;;15.23;;
15104;SDS011;7653;48.994;9.212;2022-12-18T05:52:32;32.80;;;14.13;;
15104;SDS011;7653;48.994;9.212;2022-12-18T05:54:58;34.73;;;15.97;;
15104;SDS011;7653;48.994;9.212;2022-12-18T05:57:24;32.70;;;14.27;;
15104;SDS011;7653;48.994;9.212;2022-12-18T05:59:49;34.07;;;14.63;;
15104;SDS011;7653;48.994;9.212;2022-12-18T06:02:15;31.17;;;14.60;;
15104;SDS011;7653;48.994;9.212;2022-12-18T06:04:40;35.40;;;16.07;;
15104;SDS011;7653;48.994;9.212;2022-12-18T06:07:06;33.77;;;15.73;;
15104;SDS011;7653;48.994;9.212;2022-12-18T06:09:32;35.47;;;15.97;;
15104;SDS011;7653;48.994;9.212;2022-12-18T06:11:57;28.03;;;14.40;;
15104;SDS011;7653;48.994;9.212;2022-12-18T06:14:23;33.60;;;16.33;;
15104;SDS011;7653;48.994;9.212;2022-12-18T06:16:50;30.13;;;13.70;;
15104;SDS011;7653;48.994;9.212;2022-12-18T06:19:17;40.23;;;19.17;;
15104;SDS011;7653;48.994;9.212;2022-12-18T06:21:43;38.60;;;18.37;;
15104;SDS011;7653;48.994;9.212;2022-12-18T06:24:08;43.43;;;21.87;;
15104;SDS011;7653;48.994;9.212;2022-12-18T06:26:36;40.00;;;19.13;;
15104;SDS011;7653;48.994;9.212;2022-12-18T06:29:03;41.87;;;18.17;;
15104;SDS011;7653;48.994;9.212;2022-12-18T06:31:28;37.97;;;17.47;;
15104;SDS011;7653;48.994;9.212;2022-12-18T06:33:54;39.60;;;18.57;;
15104;SDS011;7653;48.994;9.212;2022-12-18T06:36:19;34.73;;;17.40;;
15104;SDS011;7653;48.994;9.212;2022-12-18T06:38:46;34.13;;;15.37;;
15104;SDS011;7653;48.994;9.212;2022-12-18T06:41:13;27.53;;;15.10;;
15104;SDS011;7653;48.994;9.212;2022-12-18T06:43:40;31.33;;;14.40;;
15104;SDS011;7653;48.994;9.212;2022-12-18T06:46:06;30.50;;;15.83;;
15104;SDS011;7653;48.994;9.212;2022-12-18T06:48:32;29.47;;;15.57;;
15104;SDS011;7653;48.994;9.212;2022-12-18T06:50:58;25.40;;;12.97;;
15104;SDS011;7653;48.994;9.212;2022-12-18T06:53:24;30.53;;;14.00;;
15104;SDS011;7653;48.994;9.212;2022-12-18T06:55:50;29.00;;;13.67;;
15104;SDS011;7653;48.994;9.212;2022-12-18T06:58:16;29.87;;;14.80;;
15104;SDS011;7653;48.994;9.212;2022-12-18T07:00:41;29.57;;;14.53;;
15104;SDS011;7653;48.994;9.212;2022-12-18T07:03:07;27.97;;;13.33;;
15104;SDS011;7653;48.994;9.212;2022-12-18T07:05:33;28.87;;;14.97;;
15104;SDS011;7653;48.994;9.212;2022-12-18T07:07:58;29.30;;;14.13;;
15104;SDS011;7653;48.994;9.212;2022-12-18T07:10:24;28.40;;;14.57;;
15104;SDS011;7653;48.994;9.212;2022-12-18T07:12:50;28.23;;;14.30;;
15104;SDS011;7653;48.994;9.212;2022-12-18T07:15:16;24.37;;;12.77;;
15104;SDS011;7653;48.994;9.212;2022-12-18T07:17:41;32.20;;;14.70;;
15104;SDS011;7653;48.994;9.212;2022-12-18T07:20:07;36.23;;;15.27;;
15104;SDS011;7653;48.994;9.212;2022-12-18T07:22:33;29.83;;;14.83;;
15104;SDS011;7653;48.994;9.212;2022-12-18T07:24:59;30.33;;;14.57;;
15104;SDS011;7653;48.994;9.212;2022-12-18T07:27:24;30.97;;;14.30;;
15104;SDS011;7653;48.994;9.212;2022-12-18T07:29:50;26.43;;;13.23;;
15104;SDS011;7653;48.994;9.212;2022-12-18T07:32:15;26.90;;;13.93;;
15104;SDS011;7653;48.994;9.212;2022-12-18T07:34:41;32.07;;;14.13;;
15104;SDS011;7653;48.994;9.212;2022-12-18T07:37:07;28.83;;;14.33;;
15104;SDS011;7653;48.994;9.212;2022-12-18T07:39:32;30.50;;;15.07;;
15104;SDS011;7653;48.994;9.212;2022-12-18T07:41:58;28.30;;;14.23;;
15104;SDS011;7653;48.994;9.212;2022-12-18T07:44:42;38.83;;;14.40;;
15104;SDS011;7653;48.994;9.212;2022-12-18T07:47:08;32.27;;;14.80;;
15104;SDS011;7653;48.994;9.212;2022-12-18T07:49:33;31.10;;;14.00;;
15104;SDS011;7653;48.994;9.212;2022-12-18T07:51:59;27.97;;;13.00;;
15104;SDS011;7653;48.994;9.212;2022-12-18T07:54:25;30.97;;;15.40;;
15104;SDS011;7653;48.994;9.212;2022-12-18T07:56:51;28.57;;;14.07;;
15104;SDS011;7653;48.994;9.212;2022-12-18T07:59:17;32.13;;;15.23;;
15104;SDS011;7653;48.994;9.212;2022-12-18T08:01:43;29.80;;;13.53;;
15104;SDS011;7653;48.994;9.212;2022-12-18T08:04:09;25.27;;;13.40;;
15104;SDS011;7653;48.994;9.212;2022-12-18T08:06:35;31.10;;;14.57;;
15104;SDS011;7653;48.994;9.212;2022-12-18T08:09:01;29.83;;;14.53;;
15104;SDS011;7653;48.994;9.212;2022-12-18T08:11:27;28.60;;;14.90;;
15104;SDS011;7653;48.994;9.212;2022-12-18T08:13:53;27.80;;;13.83;;
15104;SDS011;7653;48.994;9.212;2022-12-18T08:16:20;30.63;;;13.87;;
15104;SDS011;7653;48.994;9.212;2022-12-18T08:18:46;30.03;;;14.43;;
15104;SDS011;7653;48.994;9.212;2022-12-18T08:21:13;28.37;;;13.60;;
15104;SDS011;7653;48.994;9.212;2022-12-18T08:23:43;34.83;;;13.80;;
15104;SDS011;7653;48.994;9.212;2022-12-18T08:26:12;32.37;;;14.63;;
15104;SDS011;7653;48.994;9.212;2022-12-18T08:28:38;37.83;;;17.53;;
15104;SDS011;7653;48.994;9.212;2022-12-18T08:31:05;42.93;;;19.40;;
15104;SDS011;7653;48.994;9.212;2022-12-18T08:33:31;36.93;;;18.40;;
15104;SDS011;7653;48.994;9.212;2022-12-18T08:35:58;33.43;;;17.07;;
15104;SDS011;7653;48.994;9.212;2022-12-18T08:38:24;32.10;;;16.20;;
15104;SDS011;7653;48.994;9.212;2022-12-18T08:40:49;33.87;;;17.50;;
15104;SDS011;7653;48.994;9.212;2022-12-18T08:43:19;33.40;;;16.60;;
15104;SDS011;7653;48.994;9.212;2022-12-18T08:46:03;34.87;;;17.93;;
15104;SDS011;7653;48.994;9.212;2022-12-18T08:48:29;32.93;;;15.63;;
15104;SDS011;7653;48.994;9.212;2022-12-18T08:50:55;32.97;;;16.63;;
15104;SDS011;7653;48.994;9.212;2022-12-18T08:53:22;37.87;;;17.10;;
15104;SDS011;7653;48.994;9.212;2022-12-18T08:55:47;32.53;;;16.17;;
15104;SDS011;7653;48.994;9.212;2022-12-18T08:58:13;33.13;;;15.80;;
15104;SDS011;7653;48.994;9.212;2022-12-18T09:00:38;30.27;;;15.57;;
15104;SDS011;7653;48.994;9.212;2022-12-18T09:03:04;34.77;;;16.90;;
15104;SDS011;7653;48.994;9.212;2022-12-18T09:05:29;39.53;;;18.83;;
15104;SDS011;7653;48.994;9.212;2022-12-18T09:07:55;38.93;;;18.17;;
15104;SDS011;7653;48.994;9.212;2022-12-18T09:10:21;35.83;;;17.67;;
15104;SDS011;7653;48.994;9.212;2022-12-18T09:12:47;35.70;;;16.77;;
15104;SDS011;7653;48.994;9.212;2022-12-18T09:15:16;34.17;;;15.83;;
15104;SDS011;7653;48.994;9.212;2022-12-18T09:17:41;38.33;;;16.40;;
15104;SDS011;7653;48.994;9.212;2022-12-18T09:20:07;36.20;;;17.80;;
15104;SDS011;7653;48.994;9.212;2022-12-18T09:22:33;32.43;;;16.20;;
15104;SDS011;7653;48.994;9.212;2022-12-18T09:24:58;37.60;;;17.20;;
15104;SDS011;7653;48.994;9.212;2022-12-18T09:27:24;44.93;;;19.73;;
15104;SDS011;7653;48.994;9.212;2022-12-18T09:29:50;42.83;;;19.43;;
15104;SDS011;7653;48.994;9.212;2022-12-18T09:32:15;39.40;;;17.43;;
15104;SDS011;7653;48.994;9.212;2022-12-18T09:34:42;40.83;;;18.70;;
15104;SDS011;7653;48.994;9.212;2022-12-18T09:37:07;38.93;;;17.80;;
15104;SDS011;7653;48.994;9.212;2022-12-18T09:39:34;39.00;;;18.40;;
15104;SDS011;7653;48.994;9.212;2022-12-18T09:42:01;34.13;;;17.60;;
15104;SDS011;7653;48.994;9.212;2022-12-18T09:44:39;32.87;;;16.23;;
15104;SDS011;7653;48.994;9.212;2022-12-18T09:47:10;34.30;;;16.93;;
15104;SDS011;7653;48.994;9.212;2022-12-18T09:49:53;42.17;;;20.67;;
15104;SDS011;7653;48.994;9.212;2022-12-18T09:55:00;41.03;;;19.57;;
15104;SDS011;7653;48.994;9.212;2022-12-18T09:57:33;43.60;;;20.73;;
15104;SDS011;7653;48.994;9.212;2022-12-18T10:00:19;35.70;;;19.30;;
15104;SDS011;7653;48.994;9.212;2022-12-18T10:02:47;36.60;;;16.57;;
15104;SDS011;7653;48.994;9.212;2022-12-18T10:05:17;39.20;;;16.83;;
15104;SDS011;7653;48.994;9.212;2022-12-18T10:21:32;38.20;;;18.10;;
15104;SDS011;7653;48.994;9.212;2022-12-18T10:26:48;46.07;;;20.97;;
15104;SDS011;7653;48.994;9.212;2022-12-18T10:29:15;45.93;;;20.97;;
15104;SDS011;7653;48.994;9.212;2022-12-18T10:31:41;44.33;;;22.43;;
15104;SDS011;7653;48.994;9.212;2022-12-18T10:34:10;41.43;;;20.80;;
15104;SDS011;7653;48.994;9.212;2022-12-18T10:36:52;47.63;;;21.83;;
15104;SDS011;7653;48.994;9.212;2022-12-18T10:39:19;40.93;;;21.27;;
15104;SDS011;7653;48.994;9.212;2022-12-18T10:41:47;43.90;;;22.83;;
15104;SDS011;7653;48.994;9.212;2022-12-18T10:44:19;45.23;;;21.63;;
15104;SDS011;7653;48.994;9.212;2022-12-18T10:46:46;45.07;;;21.67;;
15104;SDS011;7653;48.994;9.212;2022-12-18T10:49:28;44.03;;;23.03;;
15104;SDS011;7653;48.994;9.212;2022-12-18T10:52:07;51.20;;;22.20;;
15104;SDS011;7653;48.994;9.212;2022-12-18T10:54:45;38.83;;;20.30;;
15104;SDS011;7653;48.994;9.212;2022-12-18T10:57:37;42.30;;;18.67;;
15104;SDS011;7653;48.994;9.212;2022-12-18T11:00:22;39.87;;;18.87;;
15104;SDS011;7653;48.994;9.212;2022-12-18T11:02:50;32.90;;;15.53;;
15104;SDS011;7653;48.994;9.212;2022-12-18T11:07:52;38.83;;;17.87;;
15104;SDS011;7653;48.994;9.212;2022-12-18T11:10:20;42.57;;;19.53;;
15104;SDS011;7653;48.994;9.212;2022-12-18T11:12:47;41.53;;;19.53;;
15104;SDS011;7653;48.994;9.212;2022-12-18T11:15:26;41.40;;;20.07;;
15104;SDS011;7653;48.994;9.212;2022-12-18T11:17:55;45.73;;;21.17;;
15104;SDS011;7653;48.994;9.212;2022-12-18T11:22:54;37.53;;;18.67;;
15104;SDS011;7653;48.994;9.212;2022-12-18T11:25:22;39.70;;;19.60;;
15104;SDS011;7653;48.994;9.212;2022-12-18T11:27:49;41.13;;;20.23;;
15104;SDS011;7653;48.994;9.212;2022-12-18T11:30:24;38.47;;;20.37;;
15104;SDS011;7653;48.994;9.212;2022-12-18T11:32:59;40.57;;;19.57;;
15104;SDS011;7653;48.994;9.212;2022-12-18T11:35:47;38.93;;;19.00;;
15104;SDS011;7653;48.994;9.212;2022-12-18T11:38:23;40.33;;;18.60;;
15104;SDS011;7653;48.994;9.212;2022-12-18T11:40:56;41.07;;;20.63;;
15104;SDS011;7653;48.994;9.212;2022-12-18T11:43:48;42.90;;;20.90;;
15104;SDS011;7653;48.994;9.212;2022-12-18T11:46:30;42.13;;;19.23;;
15104;SDS011;7653;48.994;9.212;2022-12-18T11:54:20;47.50;;;20.67;;
15104;SDS011;7653;48.994;9.212;2022-12-18T11:56:51;38.17;;;19.40;;
15104;SDS011;7653;48.994;9.212;2022-12-18T11:59:33;37.73;;;18.97;;
15104;SDS011;7653;48.994;9.212;2022-12-18T12:07:23;39.50;;;19.67;;
15104;SDS011;7653;48.994;9.212;2022-12-18T12:16:07;36.40;;;19.30;;
15104;SDS011;7653;48.994;9.212;2022-12-18T12:24:29;34.30;;;16.73;;
15104;SDS011;7653;48.994;9.212;2022-12-18T12:29:51;36.60;;;16.57;;
15104;SDS011;7653;48.994;9.212;2022-12-18T12:38:21;31.27;;;14.87;;
15104;SDS011;7653;48.994;9.212;2022-12-18T12:41:07;32.73;;;14.73;;
15104;SDS011;7653;48.994;9.212;2022-12-18T12:43:57;35.17;;;15.20;;
15104;SDS011;7653;48.994;9.212;2022-12-18T12:46:27;30.37;;;15.97;;
15104;SDS011;7653;48.994;9.212;2022-12-18T12:48:55;33.50;;;15.80;;
15104;SDS011;7653;48.994;9.212;2022-12-18T12:51:27;29.90;;;15.03;;
15104;SDS011;7653;48.994;9.212;2022-12-18T12:53:58;33.83;;;14.40;;
15104;SDS011;7653;48.994;9.212;2022-12-18T13:04:40;27.90;;;14.33;;
15104;SDS011;7653;48.994;9.212;2022-12-18T13:07:18;33.50;;;14.87;;
15104;SDS011;7653;48.994;9.212;2022-12-18T13:18:27;28.37;;;14.57;;
15104;SDS011;7653;48.994;9.212;2022-12-18T13:25:55;30.20;;;14.37;;
15104;SDS011;7653;48.994;9.212;2022-12-18T13:31:13;29.87;;;13.90;;
15104;SDS011;7653;48.994;9.212;2022-12-18T13:34:13;24.30;;;13.33;;
15104;SDS011;7653;48.994;9.212;2022-12-18T13:36:43;29.73;;;14.97;;
15104;SDS011;7653;48.994;9.212;2022-12-18T13:39:11;26.33;;;13.77;;
15104;SDS011;7653;48.994;9.212;2022-12-18T13:41:46;28.33;;;14.97;;
15104;SDS011;7653;48.994;9.212;2022-12-18T13:44:31;26.87;;;12.93;;
15104;SDS011;7653;48.994;9.212;2022-12-18T13:46:58;29.13;;;15.40;;
15104;SDS011;7653;48.994;9.212;2022-12-18T13:52:37;28.40;;;15.17;;
15104;SDS011;7653;48.994;9.212;2022-12-18T13:55:01;32.57;;;15.17;;
15104;SDS011;7653;48.994;9.212;2022-12-18T13:57:38;31.40;;;15.00;;
15104;SDS011;7653;48.994;9.212;2022-12-18T14:02:50;29.30;;;14.97;;
15104;SDS011;7653;48.994;9.212;2022-12-18T14:05:23;33.47;;;15.20;;
15104;SDS011;7653;48.994;9.212;2022-12-18T14:07:50;26.77;;;13.70;;
15104;SDS011;7653;48.994;9.212;2022-12-18T14:10:17;26.70;;;14.07;;
15104;SDS011;7653;48.994;9.212;2022-12-18T14:12:47;29.23;;;15.13;;
15104;SDS011;7653;48.994;9.212;2022-12-18T14:15:26;29.43;;;15.10;;
15104;SDS011;7653;48.994;9.212;2022-12-18T14:24:03;28.13;;;13.90;;
15104;SDS011;7653;48.994;9.212;2022-12-18T14:26:39;27.33;;;14.83;;
15104;SDS011;7653;48.994;9.212;2022-12-18T14:32:12;28.27;;;14.43;;
15104;SDS011;7653;48.994;9.212;2022-12-18T14:34:39;31.50;;;15.23;;
15104;SDS011;7653;48.994;9.212;2022-12-18T14:37:04;33.10;;;15.30;;
15104;SDS011;7653;48.994;9.212;2022-12-18T14:39:34;34.20;;;16.17;;
15104;SDS011;7653;48.994;9.212;2022-12-18T14:41:59;44.27;;;17.23;;
15104;SDS011;7653;48.994;9.212;2022-12-18T14:44:25;34.73;;;15.97;;
15104;SDS011;7653;48.994;9.212;2022-12-18T14:46:50;40.90;;;16.87;;
15104;SDS011;7653;48.994;9.212;2022-12-18T14:51:49;57.87;;;23.00;;
15104;SDS011;7653;48.994;9.212;2022-12-18T14:54:18;60.87;;;21.87;;
15104;SDS011;7653;48.994;9.212;2022-12-18T14:56:53;48.93;;;19.77;;
15104;SDS011;7653;48.994;9.212;2022-12-18T14:59:27;36.03;;;17.53;;
15104;SDS011;7653;48.994;9.212;2022-12-18T15:02:08;35.60;;;16.83;;
15104;SDS011;7653;48.994;9.212;2022-12-18T15:04:43;27.53;;;14.80;;
15104;SDS011;7653;48.994;9.212;2022-12-18T15:09:40;28.67;;;14.17;;
15104;SDS011;7653;48.994;9.212;2022-12-18T15:12:33;28.43;;;13.57;;
15104;SDS011;7653;48.994;9.212;2022-12-18T15:15:02;26.27;;;13.87;;
15104;SDS011;7653;48.994;9.212;2022-12-18T15:17:29;30.73;;;15.13;;
15104;SDS011;7653;48.994;9.212;2022-12-18T15:20:02;34.20;;;16.23;;
15104;SDS011;7653;48.994;9.212;2022-12-18T15:22:35;29.47;;;16.13;;
15104;SDS011;7653;48.994;9.212;2022-12-18T15:25:03;38.47;;;18.37;;
15104;SDS011;7653;48.994;9.212;2022-12-18T15:27:57;34.00;;;17.20;;
15104;SDS011;7653;48.994;9.212;2022-12-18T15:30:24;29.20;;;17.17;;
15104;SDS011;7653;48.994;9.212;2022-12-18T15:32:50;28.93;;;16.10;;
15104;SDS011;7653;48.994;9.212;2022-12-18T15:37:42;33.13;;;15.97;;
15104;SDS011;7653;48.994;9.212;2022-12-18T15:40:16;30.60;;;14.87;;
15104;SDS011;7653;48.994;9.212;2022-12-18T15:42:46;30.73;;;14.43;;
15104;SDS011;7653;48.994;9.212;2022-12-18T15:45:31;35.43;;;16.03;;
15104;SDS011;7653;48.994;9.212;2022-12-18T15:47:57;34.80;;;17.50;;
15104;SDS011;7653;48.994;9.212;2022-12-18T15:50:23;50.83;;;21.20;;
15104;SDS011;7653;48.994;9.212;2022-12-18T15:52:49;42.80;;;19.93;;
15104;SDS011;7653;48.994;9.212;2022-12-18T15:55:19;37.40;;;18.50;;
15104;SDS011;7653;48.994;9.212;2022-12-18T15:58:05;31.70;;;15.67;;
15104;SDS011;7653;48.994;9.212;2022-12-18T16:00:33;32.93;;;16.53;;
15104;SDS011;7653;48.994;9.212;2022-12-18T16:03:00;31.67;;;16.37;;
15104;SDS011;7653;48.994;9.212;2022-12-18T16:05:27;31.57;;;15.93;;
15104;SDS011;7653;48.994;9.212;2022-12-18T16:07:54;32.67;;;15.40;;
15104;SDS011;7653;48.994;9.212;2022-12-18T16:10:20;30.57;;;15.43;;
15104;SDS011;7653;48.994;9.212;2022-12-18T16:12:46;27.93;;;14.50;;
15104;SDS011;7653;48.994;9.212;2022-12-18T16:15:13;31.80;;;15.27;;
15104;SDS011;7653;48.994;9.212;2022-12-18T16:17:41;29.77;;;14.77;;
15104;SDS011;7653;48.994;9.212;2022-12-18T16:20:17;35.30;;;16.50;;
15104;SDS011;7653;48.994;9.212;2022-12-18T16:22:45;30.87;;;15.60;;
15104;SDS011;7653;48.994;9.212;2022-12-18T16:25:25;37.90;;;17.13;;
15104;SDS011;7653;48.994;9.212;2022-12-18T16:27:52;36.83;;;16.30;;
15104;SDS011;7653;48.994;9.212;2022-12-18T16:30:29;34.40;;;16.00;;
15104;SDS011;7653;48.994;9.212;2022-12-18T16:32:57;29.63;;;14.63;;
15104;SDS011;7653;48.994;9.212;2022-12-18T16:35:23;32.43;;;15.33;;
15104;SDS011;7653;48.994;9.212;2022-12-18T16:37:50;29.97;;;15.10;;
15104;SDS011;7653;48.994;9.212;2022-12-18T16:40:16;33.93;;;15.87;;
15104;SDS011;7653;48.994;9.212;2022-12-18T16:42:43;35.67;;;16.47;;
15104;SDS011;7653;48.994;9.212;2022-12-18T16:45:11;31.17;;;15.53;;
15104;SDS011;7653;48.994;9.212;2022-12-18T16:47:39;31.80;;;14.53;;
15104;SDS011;7653;48.994;9.212;2022-12-18T16:50:05;31.27;;;15.23;;
15104;SDS011;7653;48.994;9.212;2022-12-18T16:52:32;32.33;;;15.53;;
15104;SDS011;7653;48.994;9.212;2022-12-18T16:54:59;29.57;;;15.13;;
15104;SDS011;7653;48.994;9.212;2022-12-18T16:57:24;29.83;;;14.50;;
15104;SDS011;7653;48.994;9.212;2022-12-18T16:59:50;35.17;;;16.10;;
15104;SDS011;7653;48.994;9.212;2022-12-18T17:02:17;30.77;;;15.77;;
15104;SDS011;7653;48.994;9.212;2022-12-18T17:04:48;31.90;;;14.57;;